Time;durP1;ratioP1;P1;durP2;ratioP2;P2;SDS_P1;SDS_P2;PMS_P1;PMS_P2;Temp;Humidity;BMP_temperature;BMP_pressure;BME280_temperature;BME280_humidity;BME280_pressure;Samples;Min_cycle;Max_cycle;Signal;HPM_P1;HPM_P2
2022/12/09 00:02:09;;;;;;;57.30;20.25;;;;;;;-2.35;100.00;151966.28;5026205;28;20045;-75
2022/12/09 00:04:38;;;;;;;135.90;20.98;;;;;;;-2.29;100.00;151980.25;5039263;28;20105;-76
2022/12/09 00:07:04;;;;;;;76.00;19.95;;;;;;;-2.37;100.00;151959.94;5030968;28;20772;-75
2022/12/09 00:09:51;;;;;;;49.28;19.65;;;;;;;-2.36;100.00;151962.44;5025262;28;20423;-76
2022/12/09 00:12:17;;;;;;;68.05;19.08;;;;;;;-2.48;100.00;151931.97;5013230;28;20103;-75
2022/12/09 00:14:51;;;;;;;45.53;20.48;;;;;;;-2.48;100.00;151931.97;5051410;28;20051;-76
2022/12/09 00:17:17;;;;;;;53.33;22.23;;;;;;;-2.35;100.00;151965.00;5045117;28;20957;-76
2022/12/09 00:19:42;;;;;;;69.32;19.65;;;;;;;-2.31;100.00;151973.91;5016301;28;20036;-76
2022/12/09 00:22:08;;;;;;;67.40;21.70;;;;;;;-2.30;100.00;151976.44;5015119;28;20083;-76
2022/12/09 00:24:34;;;;;;;47.72;20.92;;;;;;;-2.32;100.00;151972.59;5050352;28;20070;-76
2022/12/09 00:26:59;;;;;;;48.40;20.17;;;;;;;-2.22;100.00;151996.81;5049431;28;20029;-75
2022/12/09 00:29:25;;;;;;;89.75;23.92;;;;;;;-2.29;100.00;151979.00;5028825;28;20033;-76
2022/12/09 00:31:50;;;;;;;52.33;21.13;;;;;;;-2.27;100.00;151985.34;5015959;28;20044;-75
2022/12/09 00:34:16;;;;;;;53.72;21.83;;;;;;;-2.19;100.00;152004.41;5037324;28;20033;-75
2022/12/09 00:36:42;;;;;;;61.10;22.02;;;;;;;-2.12;100.00;152020.97;5039263;28;20034;-76
2022/12/09 00:39:08;;;;;;;60.42;22.20;;;;;;;-2.18;100.00;152006.97;5046971;28;20040;-75
2022/12/09 00:41:34;;;;;;;62.38;24.13;;;;;;;-2.25;100.00;151990.41;5048065;28;20111;-76
2022/12/09 00:44:00;;;;;;;63.35;24.90;;;;;;;-2.28;100.00;151982.81;5023479;28;20171;-76
2022/12/09 00:46:25;;;;;;;58.60;23.38;;;;;;;-2.20;100.00;152003.16;5015725;28;20143;-76
2022/12/09 00:48:51;;;;;;;68.82;24.20;;;;;;;-2.15;100.00;152014.56;5037889;28;20210;-75
2022/12/09 00:51:20;;;;;;;71.57;25.50;;;;;;;-2.09;100.00;152028.56;5049745;28;20115;-76
2022/12/09 00:53:52;;;;;;;104.30;24.40;;;;;;;-2.17;100.00;152009.50;5050107;28;20024;-75
2022/12/09 00:56:20;;;;;;;86.95;25.05;;;;;;;-2.19;100.00;152004.41;5040249;28;20036;-76
2022/12/09 00:58:46;;;;;;;67.35;24.45;;;;;;;-2.16;100.00;152012.06;5035635;28;20435;-75
2022/12/09 01:01:13;;;;;;;56.40;23.85;;;;;;;-2.19;100.00;152005.66;5014221;28;20037;-75
2022/12/09 01:03:39;;;;;;;74.47;24.63;;;;;;;-2.19;100.00;152005.66;5030088;28;20123;-75
2022/12/09 01:06:16;;;;;;;80.50;23.45;;;;;;;-2.15;100.00;152014.56;5012022;28;20052;-76
2022/12/09 01:08:43;;;;;;;56.28;24.80;;;;;;;-2.18;100.00;152006.97;5011498;28;20049;-75
2022/12/09 01:11:19;;;;;;;67.32;25.73;;;;;;;-2.22;100.00;151996.81;5013014;28;20037;-75
2022/12/09 01:13:47;;;;;;;71.38;26.58;;;;;;;-2.17;100.00;152010.78;5043536;28;20040;-75
2022/12/09 01:16:25;;;;;;;69.70;25.67;;;;;;;-2.10;100.00;152027.28;5012896;28;20515;-75
2022/12/09 01:18:58;;;;;;;68.10;26.20;;;;;;;-2.09;100.00;152029.88;5033447;28;20068;-76
2022/12/09 01:21:26;;;;;;;64.13;22.57;;;;;;;-2.02;100.00;152047.63;5019786;28;20049;-76
2022/12/09 01:23:59;;;;;;;63.25;25.95;;;;;;;-1.97;100.00;152060.34;5016533;28;20702;-75
2022/12/09 01:26:26;;;;;;;60.40;25.67;;;;;;;-1.94;100.00;152066.75;5033228;28;20037;-75
2022/12/09 01:28:54;;;;;;;69.10;27.90;;;;;;;-1.92;100.00;152070.53;5012286;28;20102;-75
2022/12/09 01:31:22;;;;;;;65.97;26.83;;;;;;;-1.92;100.00;152070.53;5043999;28;20040;-75
2022/12/09 01:34:02;;;;;;;59.45;24.67;;;;;;;-1.83;100.00;152093.41;5028973;28;20352;-75
2022/12/09 01:36:58;;;;;;;70.43;27.55;;;;;;;-1.99;100.00;152054.00;5038225;28;20028;-75
2022/12/09 01:39:26;;;;;;;54.38;21.70;;;;;;;-2.02;100.00;152046.38;5015075;28;20075;-76
2022/12/09 01:41:52;;;;;;;58.65;24.27;;;;;;;-1.86;100.00;152085.81;5056570;28;20429;-75
2022/12/09 01:44:23;;;;;;;58.90;25.10;;;;;;;-1.85;100.00;152088.34;5027140;28;20685;-76
2022/12/09 01:46:57;;;;;;;60.25;25.25;;;;;;;-1.74;100.00;152116.31;5027210;28;20119;-76
2022/12/09 01:49:29;;;;;;;60.72;25.80;;;;;;;-1.81;100.00;152099.81;5012015;28;20048;-76
2022/12/09 01:52:05;;;;;;;54.75;22.80;;;;;;;-1.76;100.00;152111.22;5019967;28;20051;-76
2022/12/09 01:54:32;;;;;;;66.20;24.80;;;;;;;-1.80;100.00;152102.31;5027536;28;20112;-75
2022/12/09 01:57:04;;;;;;;62.38;25.90;;;;;;;-1.78;100.00;152106.16;5041796;28;20107;-76
2022/12/09 01:59:48;;;;;;;70.57;28.23;;;;;;;-1.76;100.00;152112.50;5034806;28;20044;-76
2022/12/09 02:02:26;;;;;;;62.33;24.73;;;;;;;-1.72;100.00;152121.41;5015764;28;20059;-76
2022/12/09 02:04:53;;;;;;;75.47;25.70;;;;;;;-1.69;100.00;152129.03;5038576;28;20036;-76
2022/12/09 02:07:20;;;;;;;83.60;27.58;;;;;;;-1.69;100.00;152129.03;5035963;28;20090;-76
2022/12/09 02:09:53;;;;;;;82.05;28.60;;;;;;;-1.68;100.00;152130.31;5020012;28;20411;-75
2022/12/09 02:12:40;;;;;;;75.38;27.70;;;;;;;-1.67;100.00;152134.13;5026025;28;20044;-76
2022/12/09 02:15:12;;;;;;;75.72;27.05;;;;;;;-1.67;100.00;152134.13;5021017;28;20533;-76
2022/12/09 02:17:40;;;;;;;;;;;;;;;-1.66;100.00;152136.66;5044497;28;20064;-76
2022/12/09 02:20:22;;;;;;;72.45;25.65;;;;;;;-1.67;100.00;152134.13;5018228;28;19919;-76
2022/12/09 02:23:00;;;;;;;73.03;26.45;;;;;;;-1.66;100.00;152136.66;5031507;28;20028;-76
2022/12/09 02:25:32;;;;;;;77.05;27.05;;;;;;;-1.62;100.00;152146.88;5023875;28;20569;-76
2022/12/09 02:28:20;;;;;;;71.77;25.93;;;;;;;-1.64;100.00;152141.78;5023316;28;20516;-75
2022/12/09 02:31:17;;;;;;;83.25;28.50;;;;;;;-1.60;100.00;152150.63;5046293;28;20032;-76
2022/12/09 02:34:19;;;;;;;88.63;27.88;;;;;;;-1.59;100.00;152154.47;5023789;28;20044;-76
2022/12/09 02:36:54;;;;;;;95.28;27.23;;;;;;;-1.56;100.00;152160.84;5039637;28;20055;-76
2022/12/09 02:39:51;;;;;;;82.97;27.52;;;;;;;-1.61;100.00;152149.38;5035086;28;20124;-76
2022/12/09 02:42:21;;;;;;;79.68;26.27;;;;;;;-1.50;100.00;152174.84;5028441;28;20117;-76
2022/12/09 02:44:49;;;;;;;83.07;25.85;;;;;;;-1.49;100.00;152177.38;5031142;28;20871;-76
2022/12/09 02:47:22;;;;;;;94.15;29.60;;;;;;;-1.43;100.00;152192.63;5033909;28;20036;-76
2022/12/09 02:49:51;;;;;;;93.55;32.17;;;;;;;-1.39;100.00;152202.84;5027138;28;20033;-76
2022/12/09 02:52:20;;;;;;;94.95;30.50;;;;;;;-1.43;100.00;152192.63;5025337;28;20052;-76
2022/12/09 02:54:47;;;;;;;97.20;30.67;;;;;;;-1.45;100.00;152187.53;5027118;28;20063;-76
2022/12/09 02:57:18;;;;;;;103.13;31.35;;;;;;;-1.45;100.00;152187.53;5029361;28;20375;-76
2022/12/09 02:59:44;;;;;;;91.15;28.92;;;;;;;-1.43;100.00;152192.63;5022724;28;20107;-76
2022/12/09 03:02:20;;;;;;;103.47;30.80;;;;;;;-1.42;100.00;152196.44;5050941;28;20596;-76
2022/12/09 03:05:03;;;;;;;94.45;31.08;;;;;;;-1.45;100.00;152187.53;5055680;28;20092;-76
2022/12/09 03:08:10;;;;;;;91.45;28.80;;;;;;;-1.52;100.00;152169.75;5031787;28;20549;-76
2022/12/09 03:10:42;;;;;;;85.95;27.73;;;;;;;-1.50;100.00;152176.09;5029535;28;20037;-76
2022/12/09 03:13:20;;;;;;;87.25;28.70;;;;;;;-1.50;100.00;152176.09;5048515;28;20123;-76
2022/12/09 03:15:51;;;;;;;87.00;29.23;;;;;;;-1.48;100.00;152181.19;5038773;28;20118;-76
2022/12/09 03:18:19;;;;;;;79.38;27.55;;;;;;;-1.44;100.00;152190.09;5041744;28;20040;-76
2022/12/09 03:20:48;;;;;;;89.70;28.63;;;;;;;-1.43;100.00;152193.94;5033388;28;20037;-76
2022/12/09 03:23:19;;;;;;;98.53;30.15;;;;;;;-1.44;100.00;152191.34;5032425;28;20041;-76
2022/12/09 03:25:51;;;;;;;87.85;30.27;;;;;;;-1.48;100.00;152179.94;5055430;28;20086;-76
2022/12/09 03:28:46;;;;;;;82.35;30.05;;;;;;;-1.47;100.00;152183.75;5013899;28;20074;-76
2022/12/09 03:31:18;;;;;;;74.13;25.92;;;;;;;-1.52;100.00;152169.75;5031375;28;20144;-76
2022/12/09 03:33:47;;;;;;;90.40;28.90;;;;;;;-1.48;100.00;152181.19;5023041;28;20101;-76
2022/12/09 03:36:16;;;;;;;87.60;28.85;;;;;;;-1.51;100.00;152173.53;5057782;28;20036;-76
2022/12/09 03:38:43;;;;;;;78.40;26.50;;;;;;;-1.54;100.00;152165.94;5037154;28;20406;-76
2022/12/09 03:41:17;;;;;;;79.35;27.13;;;;;;;-1.63;100.00;152143.03;5034686;28;20477;-76
2022/12/09 03:43:50;;;;;;;81.55;28.13;;;;;;;-1.68;100.00;152130.31;5046498;28;20028;-76
2022/12/09 03:46:17;;;;;;;76.43;29.20;;;;;;;-1.76;100.00;152111.22;5054914;28;20033;-76
2022/12/09 03:48:42;;;;;;;70.90;25.90;;;;;;;-1.87;100.00;152084.50;5038685;28;20040;-76
2022/12/09 03:51:16;;;;;;;63.30;23.35;;;;;;;-1.92;100.00;152070.53;5030506;28;20083;-76
2022/12/09 03:53:48;;;;;;;66.40;23.33;;;;;;;-2.02;100.00;152046.38;5064577;28;20037;-76
2022/12/09 03:56:24;;;;;;;59.08;21.70;;;;;;;-2.07;100.00;152033.63;5038568;28;20444;-76
2022/12/09 03:58:53;;;;;;;61.72;22.15;;;;;;;-2.16;100.00;152012.06;5026112;28;20098;-76
2022/12/09 04:01:22;;;;;;;64.20;23.75;;;;;;;-2.24;100.00;151992.97;5043490;28;20033;-76
2022/12/09 04:03:50;;;;;;;63.63;23.25;;;;;;;-2.31;100.00;151973.91;5025185;28;20040;-76
2022/12/09 04:06:16;;;;;;;60.78;24.23;;;;;;;-2.38;100.00;151957.38;5047201;28;20116;-76
2022/12/09 04:08:42;;;;;;;54.88;22.40;;;;;;;-2.38;100.00;151958.63;5055675;28;20052;-77
2022/12/09 04:11:08;;;;;;;65.63;23.52;;;;;;;-2.42;100.00;151947.19;5032470;28;20506;-76
2022/12/09 04:13:34;;;;;;;61.78;24.05;;;;;;;-2.45;100.00;151939.56;5033508;28;20045;-76
2022/12/09 04:15:59;;;;;;;64.05;23.77;;;;;;;-2.53;100.00;151920.50;5052814;28;20029;-76
2022/12/09 04:18:25;;;;;;;63.60;23.80;;;;;;;-2.61;100.00;151901.44;5039604;28;20040;-76
2022/12/09 04:20:50;;;;;;;60.50;22.48;;;;;;;-2.63;100.00;151895.09;5051588;28;20044;-76
2022/12/09 04:23:16;;;;;;;60.22;22.58;;;;;;;-2.61;100.00;151901.44;5031397;28;20040;-76
2022/12/09 04:25:42;;;;;;;68.15;25.80;;;;;;;-2.51;100.00;151924.31;5050402;28;20040;-77
2022/12/09 04:28:07;;;;;;;63.63;24.40;;;;;;;-2.46;100.00;151937.03;5048614;28;20037;-76
2022/12/09 04:30:33;;;;;;;65.63;25.77;;;;;;;-2.51;100.00;151925.56;5050296;28;20096;-75
2022/12/09 04:32:59;;;;;;;72.05;24.25;;;;;;;-2.60;100.00;151902.69;5050713;28;20060;-76
2022/12/09 04:35:25;;;;;;;61.97;24.33;;;;;;;-2.61;100.00;151901.44;5056793;28;20461;-76
2022/12/09 04:37:50;;;;;;;60.35;24.27;;;;;;;-2.65;100.00;151891.28;5042399;28;20060;-76
2022/12/09 04:40:16;;;;;;;60.88;24.27;;;;;;;-2.66;100.00;151887.44;5023229;28;20041;-76
2022/12/09 04:42:42;;;;;;;73.75;28.30;;;;;;;-2.77;100.00;151862.06;5056755;28;20033;-76
2022/12/09 04:45:08;;;;;;;69.25;27.35;;;;;;;-2.84;100.00;151843.00;5046806;28;20036;-75
2022/12/09 04:47:36;;;;;;;59.05;24.35;;;;;;;-2.95;100.00;151816.28;5019109;28;20067;-77
2022/12/09 04:50:03;;;;;;;63.60;24.50;;;;;;;-3.04;100.00;151794.69;5058060;28;20037;-75
2022/12/09 04:52:29;;;;;;;58.20;22.88;;;;;;;-3.08;100.00;151784.53;5032779;28;20106;-76
2022/12/09 04:54:54;;;;;;;58.72;22.60;;;;;;;-3.09;100.00;151780.69;5042885;28;20024;-75
2022/12/09 04:57:20;;;;;;;67.63;23.25;;;;;;;-3.15;100.00;151767.97;5016880;28;20402;-76
2022/12/09 04:59:45;;;;;;;67.47;25.77;;;;;;;-3.21;100.00;151752.75;5015064;28;20039;-76
2022/12/09 05:02:11;;;;;;;61.42;23.67;;;;;;;-3.27;100.00;151737.50;5021387;28;20040;-76
2022/12/09 05:04:37;;;;;;;62.63;24.60;;;;;;;-3.31;100.00;151727.38;5026533;28;20041;-76
2022/12/09 05:07:02;;;;;;;61.20;24.20;;;;;;;-3.33;100.00;151723.53;5046605;28;20437;-75
2022/12/09 05:09:28;;;;;;;62.45;23.10;;;;;;;-3.34;100.00;151720.97;5037607;28;20101;-76
2022/12/09 05:11:56;;;;;;;62.08;24.75;;;;;;;-3.35;100.00;151717.22;5065384;28;20032;-75
2022/12/09 05:14:22;;;;;;;63.83;25.08;;;;;;;-3.40;100.00;151704.50;5026118;28;20040;-77
2022/12/09 05:16:48;;;;;;;72.53;25.73;;;;;;;-3.40;100.00;151705.75;5019160;28;20151;-76
2022/12/09 05:19:14;;;;;;;60.90;26.17;;;;;;;-3.35;100.00;151718.47;5028915;28;20402;-76
2022/12/09 05:21:42;;;;;;;62.28;24.63;;;;;;;-3.29;100.00;151731.19;5029109;28;20067;-76
2022/12/09 05:24:08;;;;;;;62.90;23.30;;;;;;;-3.21;100.00;151752.75;5052137;28;20033;-76
2022/12/09 05:26:34;;;;;;;65.43;26.08;;;;;;;-3.10;100.00;151778.19;5048507;28;20036;-75
2022/12/09 05:29:00;;;;;;;63.72;25.80;;;;;;;-2.99;100.00;151807.41;5052708;28;20044;-75
2022/12/09 05:31:26;;;;;;;72.15;26.30;;;;;;;-2.85;100.00;151841.69;5036714;28;20457;-75
2022/12/09 05:33:51;;;;;;;68.25;26.83;;;;;;;-2.77;100.00;151860.75;5054057;28;20033;-75
2022/12/09 05:36:23;;;;;;;64.63;25.92;;;;;;;-2.67;100.00;151886.19;5046319;28;20416;-75
2022/12/09 05:38:50;;;;;;;67.90;26.83;;;;;;;-2.62;100.00;151897.63;5035454;28;20045;-75
2022/12/09 05:41:17;;;;;;;76.18;30.40;;;;;;;-2.58;100.00;151909.09;5031590;28;20036;-76
2022/12/09 05:43:42;;;;;;;73.22;29.27;;;;;;;-2.45;100.00;151940.88;5049706;28;20500;-75
2022/12/09 05:46:08;;;;;;;84.10;32.17;;;;;;;-2.36;100.00;151963.72;5028484;28;20124;-75
2022/12/09 05:48:35;;;;;;;82.28;30.95;;;;;;;-2.28;100.00;151982.81;5026988;28;20135;-75
2022/12/09 05:51:06;;;;;;;85.95;30.67;;;;;;;-2.27;100.00;151985.34;5049620;28;20540;-76
2022/12/09 05:53:32;;;;;;;79.63;31.63;;;;;;;-2.26;100.00;151987.91;5043265;28;20063;-75
2022/12/09 05:55:58;;;;;;;84.90;33.50;;;;;;;-2.25;100.00;151990.41;5039310;28;20041;-75
2022/12/09 05:58:24;;;;;;;81.45;31.10;;;;;;;-2.22;100.00;151996.81;5043961;28;20047;-75
2022/12/09 06:00:49;;;;;;;96.93;34.35;;;;;;;-2.19;100.00;152004.41;5044199;28;20029;-75
2022/12/09 06:03:17;;;;;;;93.53;35.65;;;;;;;-2.09;100.00;152028.56;5028204;28;20037;-76
2022/12/09 06:05:43;;;;;;;87.70;35.03;;;;;;;-2.00;100.00;152052.75;5038173;28;20516;-75
2022/12/09 06:08:08;;;;;;;83.20;32.20;;;;;;;-1.92;100.00;152071.81;5050128;28;20041;-75
2022/12/09 06:10:38;;;;;;;94.20;34.83;;;;;;;-1.91;100.00;152074.34;5051019;28;20111;-75
2022/12/09 06:13:04;;;;;;;94.15;34.85;;;;;;;-1.91;100.00;152074.34;5045926;28;20039;-75
2022/12/09 06:15:31;;;;;;;95.93;35.00;;;;;;;-1.86;100.00;152085.81;5027851;28;20115;-76
2022/12/09 06:17:57;;;;;;;92.95;35.67;;;;;;;-1.79;100.00;152103.59;5052413;28;20032;-76
2022/12/09 06:20:22;;;;;;;86.00;33.35;;;;;;;-1.82;100.00;152097.25;5013525;28;20090;-75
2022/12/09 06:22:48;;;;;;;85.28;32.65;;;;;;;-1.80;100.00;152101.06;5048424;28;20505;-75
2022/12/09 06:25:13;;;;;;;89.70;34.83;;;;;;;-1.80;100.00;152101.06;5034776;28;20115;-75
2022/12/09 06:27:39;;;;;;;94.82;36.72;;;;;;;-1.78;100.00;152106.16;5043759;28;20110;-76
2022/12/09 06:30:05;;;;;;;102.18;38.92;;;;;;;-1.73;100.00;152117.56;5035647;28;20047;-75
2022/12/09 06:32:31;;;;;;;103.05;38.22;;;;;;;-1.72;100.00;152121.41;5048690;28;20055;-75
2022/12/09 06:34:56;;;;;;;99.70;36.85;;;;;;;-1.77;100.00;152109.97;5041413;28;20557;-76
2022/12/09 06:37:22;;;;;;;101.72;36.22;;;;;;;-1.76;100.00;152111.22;5033171;28;20038;-76
2022/12/09 06:39:47;;;;;;;109.53;37.78;;;;;;;-1.76;100.00;152111.22;5033782;28;20032;-76
2022/12/09 06:42:13;;;;;;;109.45;36.50;;;;;;;-1.76;100.00;152111.22;5052737;28;20700;-76
2022/12/09 06:44:39;;;;;;;114.47;37.70;;;;;;;-1.77;100.00;152109.97;5056305;28;20040;-75
2022/12/09 06:47:06;;;;;;;118.90;40.13;;;;;;;-1.77;100.00;152108.72;5055827;28;20032;-75
2022/12/09 06:49:31;;;;;;;109.43;38.95;;;;;;;-1.76;100.00;152111.22;5047300;28;20098;-75
2022/12/09 06:51:57;;;;;;;114.18;37.95;;;;;;;-1.76;100.00;152112.50;5048492;28;20040;-75
2022/12/09 06:54:23;;;;;;;106.90;37.45;;;;;;;-1.72;100.00;152121.41;5037513;28;20028;-76
2022/12/09 06:56:48;;;;;;;94.38;34.40;;;;;;;-1.68;100.00;152131.56;5057213;28;20033;-75
2022/12/09 06:59:14;;;;;;;108.68;35.22;;;;;;;-1.66;100.00;152135.38;5012961;28;20413;-75
2022/12/09 07:01:39;;;;;;;97.25;34.78;;;;;;;-1.74;100.00;152116.31;5038328;28;20044;-76
2022/12/09 07:04:05;;;;;;;85.57;33.45;;;;;;;-1.69;100.00;152129.03;5022151;28;20059;-75
2022/12/09 07:06:37;;;;;;;95.15;34.15;;;;;;;-1.64;100.00;152140.47;5049847;28;20092;-76
2022/12/09 07:09:11;;;;;;;104.57;36.17;;;;;;;-1.67;100.00;152132.88;5032587;28;20052;-75
2022/12/09 07:11:39;;;;;;;106.45;35.85;;;;;;;-1.62;100.00;152145.56;5052837;28;20647;-75
2022/12/09 07:14:05;;;;;;;108.38;37.38;;;;;;;-1.65;100.00;152137.97;5056361;28;20032;-75
2022/12/09 07:16:31;;;;;;;96.43;35.03;;;;;;;-1.65;100.00;152139.22;5055397;28;20025;-75
2022/12/09 07:18:57;;;;;;;105.65;35.88;;;;;;;-1.65;100.00;152137.97;5013205;28;20041;-75
2022/12/09 07:21:23;;;;;;;99.07;34.33;;;;;;;-1.66;100.00;152136.66;5037432;28;20049;-75
2022/12/09 07:23:49;;;;;;;108.18;35.92;;;;;;;-1.64;100.00;152141.78;5029680;28;20038;-75
2022/12/09 07:26:15;;;;;;;104.55;34.83;;;;;;;-1.64;100.00;152140.47;5029706;28;20045;-75
2022/12/09 07:28:42;;;;;;;92.25;33.88;;;;;;;-1.55;100.00;152163.38;5050699;28;20103;-74
2022/12/09 07:31:22;;;;;;;97.95;34.17;;;;;;;-1.57;100.00;152159.53;5013436;28;20051;-75
2022/12/09 07:33:48;;;;;;;96.68;33.78;;;;;;;-1.61;100.00;152149.38;5036208;28;20094;-75
2022/12/09 07:36:13;;;;;;;97.35;32.10;;;;;;;-1.57;100.00;152159.53;5046117;28;20029;-75
2022/12/09 07:38:39;;;;;;;100.60;31.48;;;;;;;-1.59;100.00;152154.47;5040472;28;20083;-76
2022/12/09 07:41:07;;;;;;;103.63;32.88;;;;;;;-1.52;100.00;152169.75;5056453;28;20032;-75
2022/12/09 07:43:33;;;;;;;98.50;32.67;;;;;;;-1.51;100.00;152172.28;5044528;28;20458;-75
2022/12/09 07:46:07;;;;;;;87.78;32.28;;;;;;;-1.54;100.00;152165.94;5035568;28;20398;-75
2022/12/09 07:48:33;;;;;;;97.63;32.75;;;;;;;-1.48;100.00;152179.94;5032692;28;20043;-75
2022/12/09 07:51:02;;;;;;;90.63;32.30;;;;;;;-1.53;100.00;152167.19;5051569;28;20040;-75
2022/12/09 07:53:29;;;;;;;89.05;31.25;;;;;;;-1.54;100.00;152165.94;5026179;28;20522;-75
2022/12/09 07:55:55;;;;;;;91.55;31.88;;;;;;;-1.53;100.00;152167.19;5054661;28;20043;-75
2022/12/09 07:58:21;;;;;;;84.03;30.17;;;;;;;-1.54;100.00;152165.94;5034324;28;20095;-75
2022/12/09 08:00:46;;;;;;;87.15;30.35;;;;;;;-1.52;100.00;152171.03;5064841;28;20457;-75
2022/12/09 08:03:12;;;;;;;85.95;30.85;;;;;;;-1.53;100.00;152168.47;5038597;28;20040;-75
2022/12/09 08:05:52;;;;;;;87.60;31.17;;;;;;;-1.47;100.00;152183.75;5032811;28;20386;-75
2022/12/09 08:08:18;;;;;;;76.80;27.70;;;;;;;-1.45;100.00;152187.53;5029693;28;20097;-75
2022/12/09 08:10:45;;;;;;;88.20;27.98;;;;;;;-1.48;100.00;152179.94;5045067;28;20498;-76
2022/12/09 08:13:11;;;;;;;78.53;28.95;;;;;;;-1.49;100.00;152178.63;5054355;28;20516;-76
2022/12/09 08:15:37;;;;;;;84.32;29.63;;;;;;;-1.51;100.00;152173.53;5060644;28;20039;-75
2022/12/09 08:18:05;;;;;;;87.95;31.80;;;;;;;-1.54;100.00;152165.94;5043073;28;20037;-75
2022/12/09 08:20:31;;;;;;;82.20;30.35;;;;;;;-1.44;100.00;152191.34;5048340;28;20456;-75
2022/12/09 08:22:57;;;;;;;87.63;31.90;;;;;;;-1.44;100.00;152191.34;5053448;28;20036;-75
2022/12/09 08:25:22;;;;;;;78.95;29.10;;;;;;;-1.39;100.00;152202.84;5049017;28;20045;-75
2022/12/09 08:27:48;;;;;;;78.78;30.67;;;;;;;-1.39;100.00;152204.09;5046790;28;20061;-75
2022/12/09 08:30:15;;;;;;;78.68;29.83;;;;;;;-1.39;100.00;152204.09;5044015;28;20102;-75
2022/12/09 08:32:40;;;;;;;70.38;28.85;;;;;;;-1.34;100.00;152214.25;5053835;28;20032;-75
2022/12/09 08:35:13;;;;;;;74.93;29.52;;;;;;;-1.34;100.00;152215.53;5046321;28;20120;-75
2022/12/09 08:37:42;;;;;;;;;;;;;;;-1.33;100.00;152216.84;5029067;28;20024;-75
2022/12/09 08:40:09;;;;;;;69.22;24.63;;;;;;;-1.32;100.00;152220.59;5043193;28;20285;-75
2022/12/09 08:42:35;;;;;;;74.78;28.52;;;;;;;-1.30;100.00;152225.75;5043944;28;20115;-75
2022/12/09 08:45:01;;;;;;;70.38;27.98;;;;;;;-1.26;100.00;152234.59;5028306;28;20108;-75
2022/12/09 08:47:27;;;;;;;65.78;26.45;;;;;;;-1.26;100.00;152235.91;5045493;28;20545;-75
2022/12/09 08:49:52;;;;;;;66.20;27.13;;;;;;;-1.26;100.00;152234.59;5029824;28;20041;-75
2022/12/09 08:52:18;;;;;;;75.28;30.65;;;;;;;-1.26;100.00;152234.59;5027263;28;20055;-75
2022/12/09 08:54:44;;;;;;;76.28;29.83;;;;;;;-1.26;100.00;152235.91;5050042;28;20047;-75
2022/12/09 08:57:10;;;;;;;75.00;27.70;;;;;;;-1.15;100.00;152262.59;5052753;28;20100;-75
2022/12/09 08:59:36;;;;;;;67.50;27.38;;;;;;;-1.13;100.00;152267.72;5028521;28;20033;-75
2022/12/09 09:02:01;;;;;;;74.00;29.15;;;;;;;-1.10;100.00;152274.06;5031623;28;20020;-75
2022/12/09 09:04:27;;;;;;;69.75;28.23;;;;;;;-1.13;100.00;152267.72;5050827;28;20095;-75
2022/12/09 09:06:52;;;;;;;71.35;28.08;;;;;;;-1.01;100.00;152298.25;5035008;28;20052;-74
2022/12/09 09:09:19;;;;;;;65.00;27.30;;;;;;;-0.98;100.00;152304.59;5045713;28;20033;-75
2022/12/09 09:11:46;;;;;;;61.90;25.90;;;;;;;-1.05;100.00;152288.06;5011771;28;20032;-75
2022/12/09 09:14:13;;;;;;;64.75;26.50;;;;;;;-1.01;100.00;152297.00;5051946;28;20056;-75
2022/12/09 09:16:41;;;;;;;64.03;26.45;;;;;;;-1.02;100.00;152295.72;5030334;28;20119;-75
2022/12/09 09:19:07;;;;;;;65.65;26.75;;;;;;;-0.95;100.00;152311.00;5040978;28;20493;-75
2022/12/09 09:21:33;;;;;;;61.58;26.25;;;;;;;-0.95;100.00;152312.25;5023392;28;20044;-75
2022/12/09 09:23:59;;;;;;;63.67;25.98;;;;;;;-0.93;100.00;152316.06;5036184;28;20033;-75
2022/12/09 09:26:29;;;;;;;61.05;26.92;;;;;;;-0.90;100.00;152325.00;5009479;28;20079;-75
2022/12/09 09:28:55;;;;;;;60.58;25.85;;;;;;;-0.79;100.00;152351.72;5042773;28;20051;-75
2022/12/09 09:31:22;;;;;;;61.45;26.40;;;;;;;-0.73;100.00;152365.72;5019828;28;20036;-75
2022/12/09 09:33:49;;;;;;;60.72;27.85;;;;;;;-0.78;100.00;152354.25;5039496;28;20040;-75
2022/12/09 09:36:21;;;;;;;60.15;26.20;;;;;;;-0.75;100.00;152361.91;5040675;28;20124;-75
2022/12/09 09:38:48;;;;;;;65.25;25.42;;;;;;;-0.76;100.00;152358.06;5049778;28;20097;-75
2022/12/09 09:41:47;;;;;;;58.50;26.42;;;;;;;-0.70;100.00;152373.34;5019794;28;20150;-75
2022/12/09 09:44:34;;;;;;;61.25;23.48;;;;;;;-0.74;100.00;152363.16;5055949;28;20094;-75
2022/12/09 09:47:10;;;;;;;53.72;23.70;;;;;;;-0.72;100.00;152368.25;5051974;28;20086;-75
2022/12/09 09:49:45;;;;;;;58.00;24.52;;;;;;;-0.68;100.00;152378.44;5043821;28;20033;-74
2022/12/09 09:52:19;;;;;;;57.22;25.35;;;;;;;-0.61;100.00;152397.53;5010624;28;20045;-75
2022/12/09 09:54:45;;;;;;;54.63;24.42;;;;;;;-0.64;100.00;152389.91;5056353;28;20409;-75
2022/12/09 09:57:21;;;;;;;55.05;24.75;;;;;;;-0.66;100.00;152384.81;5056463;28;20033;-75
2022/12/09 10:00:17;;;;;;;55.28;23.30;;;;;;;-0.69;100.00;152375.91;5046590;28;20114;-75
2022/12/09 10:03:01;;;;;;;55.08;25.33;;;;;;;-0.66;100.00;152383.50;5050411;28;20048;-76
2022/12/09 10:05:40;;;;;;;53.20;24.08;;;;;;;-0.61;100.00;152397.53;5040763;28;20045;-75
2022/12/09 10:08:38;;;;;;;61.83;25.10;;;;;;;-0.62;100.00;152393.75;5022508;28;20069;-75
2022/12/09 10:11:23;;;;;;;51.38;24.25;;;;;;;-0.57;100.00;152405.16;5057675;28;20055;-75
2022/12/09 10:14:01;;;;;;;59.60;25.10;;;;;;;-0.52;100.00;152417.91;5064817;28;20079;-75
2022/12/09 10:16:43;;;;;;;56.63;23.67;;;;;;;-0.51;100.00;152421.75;5054665;28;20029;-76
2022/12/09 10:19:18;;;;;;;57.70;25.92;;;;;;;-0.50;100.00;152424.25;5026707;28;20064;-75
2022/12/09 10:21:46;;;;;;;57.35;24.27;;;;;;;-0.41;100.00;152447.19;5052743;28;20024;-74
2022/12/09 10:24:32;;;;;;;49.20;22.23;;;;;;;-0.40;100.00;152448.44;5015134;28;20055;-76
2022/12/09 10:27:00;;;;;;;52.17;22.23;;;;;;;-0.43;100.00;152442.09;5051089;28;20029;-75
2022/12/09 10:29:42;;;;;;;51.40;23.65;;;;;;;-0.34;100.00;152463.75;5044553;28;20083;-75
2022/12/09 10:32:17;;;;;;;45.72;23.02;;;;;;;-0.34;100.00;152462.44;5046886;28;20162;-75
2022/12/09 10:34:44;;;;;;;43.20;21.58;;;;;;;-0.27;100.00;152481.53;5038166;28;20379;-75
2022/12/09 10:37:28;;;;;;;45.50;23.77;;;;;;;-0.31;100.00;152471.38;5009504;28;20025;-75
2022/12/09 10:40:08;;;;;;;43.28;22.05;;;;;;;-0.24;100.00;152487.94;5015532;28;20044;-75
2022/12/09 10:45:28;;;;;;;45.10;24.08;;;;;;;-0.25;100.00;152485.38;5051664;28;20438;-75
2022/12/09 10:47:53;;;;;;;45.58;23.33;;;;;;;-0.17;100.00;152505.78;5047665;28;20037;-75
2022/12/09 10:50:33;;;;;;;45.30;22.83;;;;;;;-0.23;100.00;152490.47;5040859;28;20070;-75
2022/12/09 10:53:06;;;;;;;45.95;22.65;;;;;;;-0.18;100.00;152503.22;5019963;28;20116;-75
2022/12/09 10:55:36;;;;;;;46.67;23.25;;;;;;;-0.11;100.00;152519.78;5026195;28;20117;-75
2022/12/09 10:58:20;;;;;;;43.42;22.30;;;;;;;-0.06;100.00;152532.50;5043200;28;20060;-75
2022/12/09 11:00:59;;;;;;;45.97;22.42;;;;;;;-0.01;100.00;152545.25;5045963;28;20479;-75
2022/12/09 11:03:32;;;;;;;47.10;21.33;;;;;;;-0.05;100.00;152536.31;5038494;28;20059;-76
2022/12/09 11:05:59;;;;;;;;;;;;;;;-0.01;100.00;152545.25;5026511;28;20041;-75
2022/12/09 11:08:25;;;;;;;43.85;20.70;;;;;;;-0.05;100.00;152536.31;5051227;28;19923;-75
2022/12/09 11:10:51;;;;;;;47.08;21.83;;;;;;;-0.03;100.00;152541.41;5037497;28;20036;-76
2022/12/09 11:13:19;;;;;;;43.30;20.75;;;;;;;0.09;100.00;152569.44;5043682;28;20024;-75
2022/12/09 11:15:52;;;;;;;44.78;23.52;;;;;;;0.03;100.00;152555.41;5048068;28;20032;-75
2022/12/09 11:18:28;;;;;;;39.97;20.65;;;;;;;0.02;100.00;152551.59;5026626;28;20751;-76